createdAt,value
2018-09-25T00:01:50.673Z,3.00
2018-09-25T00:04:25.351Z,3.05
2018-09-25T00:07:00.014Z,3.10
2018-09-25T00:09:34.582Z,2.97
2018-09-25T00:12:09.427Z,2.67
2018-09-25T00:14:44.436Z,3.23
2018-09-25T00:17:19.327Z,3.33
2018-09-25T00:19:54.167Z,3.20
2018-09-25T00:22:28.830Z,3.40
2018-09-25T00:25:03.693Z,3.25
2018-09-25T00:27:38.350Z,3.57
2018-09-25T00:30:13.367Z,3.50
2018-09-25T00:32:48.088Z,3.40
2018-09-25T00:35:22.897Z,3.57
2018-09-25T00:37:57.870Z,3.70
2018-09-25T00:40:32.911Z,4.13
2018-09-25T00:43:07.652Z,3.77
2018-09-25T00:46:03.867Z,3.65
2018-09-25T00:48:38.686Z,3.10
2018-09-25T00:51:13.654Z,3.80
2018-09-25T00:53:48.469Z,3.70
2018-09-25T00:56:23.211Z,3.77
2018-09-25T00:58:57.835Z,3.50
2018-09-25T01:01:32.756Z,3.52
2018-09-25T01:04:07.657Z,3.63
2018-09-25T01:06:42.448Z,3.43
2018-09-25T01:09:17.255Z,3.43
2018-09-25T01:11:52.108Z,3.10
2018-09-25T01:14:27.509Z,3.55
2018-09-25T01:17:02.330Z,3.10
2018-09-25T01:19:37.342Z,3.00
2018-09-25T01:22:12.024Z,3.07
2018-09-25T01:24:46.971Z,3.58
2018-09-25T01:27:21.819Z,3.30
2018-09-25T01:29:56.665Z,3.62
2018-09-25T01:32:31.691Z,3.47
2018-09-25T01:35:06.698Z,3.40
2018-09-25T01:37:42.640Z,2.97
2018-09-25T01:40:17.170Z,3.10
2018-09-25T01:42:51.802Z,3.77
2018-09-25T01:45:26.376Z,3.27
2018-09-25T01:48:01.092Z,3.55
2018-09-25T01:50:35.920Z,3.20
2018-09-25T01:53:10.812Z,3.10
2018-09-25T01:55:45.588Z,3.20
2018-09-25T01:58:20.229Z,3.10
2018-09-25T02:00:55.330Z,3.67
2018-09-25T02:03:30.197Z,3.87
2018-09-25T02:06:04.941Z,4.00
2018-09-25T02:08:39.722Z,3.80
2018-09-25T02:11:14.562Z,3.37
2018-09-25T02:13:49.540Z,3.50
2018-09-25T02:16:24.450Z,3.73
2018-09-25T02:18:59.376Z,3.60
2018-09-25T02:21:34.853Z,3.83
2018-09-25T02:24:09.735Z,3.55
2018-09-25T02:26:45.093Z,3.17
2018-09-25T02:29:19.833Z,4.10
2018-09-25T02:31:54.603Z,4.07
2018-09-25T02:34:29.345Z,3.77
2018-09-25T02:37:04.117Z,4.00
2018-09-25T02:39:38.846Z,4.07
2018-09-25T02:47:17.477Z,3.80
2018-09-25T02:49:52.186Z,3.80
2018-09-25T02:52:26.960Z,4.10
2018-09-25T02:55:01.781Z,3.80
2018-09-25T02:57:36.599Z,4.00
2018-09-25T03:00:11.510Z,3.33
2018-09-25T03:02:46.222Z,3.60
2018-09-25T03:05:20.851Z,3.70
2018-09-25T03:07:56.785Z,4.00
2018-09-25T03:10:31.513Z,3.47
2018-09-25T03:13:06.170Z,3.53
2018-09-25T03:15:40.966Z,3.83
2018-09-25T03:18:15.770Z,3.50
2018-09-25T03:20:50.719Z,3.25
2018-09-25T03:23:25.555Z,3.63
2018-09-25T03:26:00.557Z,3.70
2018-09-25T03:28:35.185Z,3.13
2018-09-25T03:31:09.808Z,3.70
2018-09-25T03:33:44.857Z,3.25
2018-09-25T03:36:19.573Z,3.87
2018-09-25T03:38:54.452Z,3.90
2018-09-25T03:41:29.057Z,3.77
2018-09-25T03:44:03.824Z,3.80
2018-09-25T03:46:38.858Z,3.50
2018-09-25T03:49:13.563Z,4.30
2018-09-25T03:51:48.552Z,4.10
2018-09-25T03:54:23.502Z,3.63
2018-09-25T03:56:58.305Z,3.90
2018-09-25T03:59:33.204Z,4.27
2018-09-25T04:02:07.907Z,4.22
2018-09-25T04:04:42.852Z,3.95
2018-09-25T04:07:17.607Z,4.03
2018-09-25T04:09:52.208Z,3.37
2018-09-25T04:12:27.084Z,3.80
2018-09-25T04:15:01.626Z,4.73
2018-09-25T04:17:36.522Z,3.63
2018-09-25T04:20:11.301Z,3.53
2018-09-25T04:22:46.072Z,3.27
2018-09-25T04:25:20.861Z,3.30
2018-09-25T04:27:55.488Z,3.53
2018-09-25T04:30:30.349Z,3.83
2018-09-25T04:33:05.154Z,4.90
2018-09-25T04:35:39.924Z,4.72
2018-09-25T04:38:14.703Z,3.60
2018-09-25T04:40:49.253Z,3.40
2018-09-25T04:43:24.232Z,3.75
2018-09-25T04:45:58.982Z,3.83
2018-09-25T04:48:33.747Z,4.40
2018-09-25T04:51:08.460Z,4.17
2018-09-25T04:53:43.292Z,4.07
2018-09-25T04:56:19.101Z,4.65
2018-09-25T04:58:53.826Z,4.33
2018-09-25T05:01:28.614Z,4.20
2018-09-25T05:04:03.552Z,5.27
2018-09-25T05:06:38.480Z,4.55
2018-09-25T05:09:14.094Z,4.20
2018-09-25T05:11:50.428Z,4.67
2018-09-25T05:14:25.102Z,4.00
2018-09-25T05:17:00.204Z,4.30
2018-09-25T05:19:35.067Z,4.23
2018-09-25T05:22:09.854Z,3.60
2018-09-25T05:24:44.646Z,3.70
2018-09-25T05:27:19.298Z,4.40
2018-09-25T05:29:54.328Z,4.30
2018-09-25T05:32:29.068Z,4.30
2018-09-25T05:35:03.939Z,4.50
2018-09-25T05:37:38.859Z,4.43
2018-09-25T05:40:13.771Z,4.93
2018-09-25T05:42:48.457Z,5.70
2018-09-25T05:45:23.241Z,6.97
2018-09-25T05:47:58.140Z,7.13
2018-09-25T05:50:32.823Z,7.70
2018-09-25T05:53:07.852Z,5.50
2018-09-25T05:55:42.895Z,5.50
2018-09-25T05:58:17.404Z,5.90
2018-09-25T06:00:53.204Z,6.78
2018-09-25T06:03:27.839Z,6.40
2018-09-25T06:06:02.918Z,5.85
2018-09-25T06:08:37.739Z,5.87
2018-09-25T06:11:13.968Z,5.67
2018-09-25T06:13:49.908Z,6.10
2018-09-25T06:16:32.057Z,6.73
2018-09-25T06:19:07.268Z,11.60
2018-09-25T06:21:42.059Z,7.90
2018-09-25T06:24:16.773Z,7.10
2018-09-25T06:26:51.558Z,7.80
2018-09-25T06:29:26.458Z,8.00
2018-09-25T06:32:01.087Z,6.80
2018-09-25T06:34:35.749Z,6.80
2018-09-25T06:37:10.661Z,6.70
2018-09-25T06:39:45.359Z,6.67
2018-09-25T06:42:20.129Z,6.70
2018-09-25T06:44:55.022Z,6.83
2018-09-25T06:47:29.983Z,6.90
2018-09-25T06:50:04.773Z,6.80
2018-09-25T06:52:39.763Z,7.47
2018-09-25T06:55:14.720Z,7.87
2018-09-25T06:57:50.050Z,7.97
2018-09-25T07:00:24.952Z,8.77
2018-09-25T07:02:59.729Z,10.13
2018-09-25T07:05:34.939Z,8.27
2018-09-25T07:08:09.932Z,8.20
2018-09-25T07:10:44.917Z,8.53
2018-09-25T07:13:19.589Z,8.28
2018-09-25T07:15:54.319Z,8.70
2018-09-25T07:18:29.124Z,7.93
2018-09-25T07:21:03.872Z,8.00
2018-09-25T07:23:38.669Z,8.87
2018-09-25T07:26:13.518Z,8.97
2018-09-25T07:28:48.259Z,8.33
2018-09-25T07:31:23.053Z,8.45
2018-09-25T07:33:58.021Z,12.47
2018-09-25T07:36:33.165Z,10.63
2018-09-25T07:39:07.967Z,9.43
2018-09-25T07:41:42.879Z,9.70
2018-09-25T07:44:17.693Z,9.63
2018-09-25T07:46:52.527Z,8.80
2018-09-25T07:49:27.338Z,8.90
2018-09-25T07:52:02.315Z,8.70
2018-09-25T07:54:37.043Z,8.50
2018-09-25T07:57:12.798Z,8.20
2018-09-25T07:59:47.772Z,7.60
2018-09-25T08:02:22.447Z,8.57
2018-09-25T08:04:57.323Z,7.70
2018-09-25T08:07:32.212Z,8.87
2018-09-25T08:10:06.939Z,9.53
2018-09-25T08:12:41.807Z,8.70
2018-09-25T08:15:16.624Z,8.03
2018-09-25T08:17:51.193Z,6.73
2018-09-25T08:20:26.092Z,7.17
2018-09-25T08:23:01.004Z,5.80
2018-09-25T08:25:35.789Z,14.23
2018-09-25T08:28:10.505Z,15.23
2018-09-25T08:30:45.299Z,6.83
2018-09-25T08:33:19.950Z,6.27
2018-09-25T08:35:54.683Z,5.87
2018-09-25T08:38:29.594Z,5.87
2018-09-25T08:41:04.544Z,5.13
2018-09-25T08:43:39.316Z,5.40
2018-09-25T08:46:14.463Z,4.62
2018-09-25T08:48:49.268Z,4.83
2018-09-25T08:51:24.132Z,4.67
2018-09-25T08:53:59.127Z,4.40
2018-09-25T08:56:34.055Z,4.92
2018-09-25T08:59:08.955Z,4.70
2018-09-25T09:01:44.004Z,4.60
2018-09-25T09:04:18.813Z,4.90
2018-09-25T09:06:53.633Z,4.60
2018-09-25T09:09:28.338Z,4.90
2018-09-25T09:12:03.199Z,4.80
2018-09-25T09:14:37.873Z,4.10
2018-09-25T09:17:12.707Z,4.47
2018-09-25T09:19:47.640Z,10.18
2018-09-25T09:22:22.592Z,4.70
2018-09-25T09:24:57.474Z,4.27
2018-09-25T09:27:32.364Z,3.23
2018-09-25T09:30:08.153Z,4.30
2018-09-25T09:32:43.122Z,3.65
2018-09-25T09:35:17.879Z,3.50
2018-09-25T09:37:52.660Z,3.40
2018-09-25T09:40:27.409Z,3.37
2018-09-25T09:43:02.204Z,2.90
2018-09-25T09:45:36.987Z,3.30
2018-09-25T09:48:12.011Z,2.63
2018-09-25T09:50:48.155Z,3.30
2018-09-25T09:53:22.912Z,3.00
2018-09-25T09:55:57.483Z,3.10
2018-09-25T09:58:32.070Z,2.83
2018-09-25T10:01:06.665Z,2.83
2018-09-25T10:03:41.630Z,3.10
2018-09-25T10:06:16.478Z,2.57
2018-09-25T10:08:51.321Z,2.80
2018-09-25T10:11:26.051Z,2.80
2018-09-25T10:14:01.809Z,3.07
2018-09-25T10:16:36.585Z,2.70
2018-09-25T10:19:11.593Z,3.07
2018-09-25T10:21:46.241Z,2.93
2018-09-25T10:24:21.028Z,2.72
2018-09-25T10:26:55.675Z,3.70
2018-09-25T10:29:30.590Z,2.87
2018-09-25T10:32:05.405Z,2.47
2018-09-25T10:34:40.040Z,2.40
2018-09-25T10:37:14.924Z,2.97
2018-09-25T10:39:49.914Z,2.30
2018-09-25T10:42:24.888Z,2.42
2018-09-25T10:44:59.863Z,2.50
2018-09-25T10:47:34.580Z,2.10
2018-09-25T10:50:09.352Z,2.10
2018-09-25T10:52:44.103Z,1.80
2018-09-25T10:55:19.292Z,1.87
2018-09-25T10:57:54.142Z,1.93
2018-09-25T11:00:28.928Z,1.93
2018-09-25T11:03:03.876Z,2.20
2018-09-25T11:05:38.718Z,1.90
2018-09-25T11:08:13.456Z,1.70
2018-09-25T11:10:48.427Z,2.23
2018-09-25T11:13:23.380Z,2.07
2018-09-25T11:15:58.042Z,2.10
2018-09-25T11:18:33.100Z,1.83
2018-09-25T11:21:08.049Z,1.93
2018-09-25T11:23:43.014Z,2.35
2018-09-25T11:26:17.819Z,2.30
2018-09-25T11:28:52.521Z,1.80
2018-09-25T11:31:27.201Z,1.93
2018-09-25T11:34:02.006Z,2.03
2018-09-25T11:36:36.700Z,2.35
2018-09-25T11:39:13.450Z,1.90
2018-09-25T11:41:48.472Z,2.27
2018-09-25T11:44:23.189Z,1.93
2018-09-25T11:46:58.038Z,1.70
2018-09-25T11:49:32.779Z,2.07
2018-09-25T11:52:07.833Z,2.03
2018-09-25T11:54:42.649Z,1.83
2018-09-25T11:57:17.653Z,2.40
2018-09-25T11:59:53.699Z,2.35
2018-09-25T12:02:28.620Z,1.82
2018-09-25T12:05:03.344Z,2.30
2018-09-25T12:07:38.120Z,1.80
2018-09-25T12:10:13.456Z,1.80
2018-09-25T12:12:48.305Z,1.77
2018-09-25T12:15:22.965Z,2.00
2018-09-25T12:17:57.909Z,1.93
2018-09-25T12:20:32.821Z,1.42
2018-09-25T12:23:07.704Z,1.60
2018-09-25T12:25:42.501Z,1.60
2018-09-25T12:28:17.560Z,1.60
2018-09-25T12:30:52.552Z,1.60
2018-09-25T12:33:27.326Z,1.50
2018-09-25T12:36:02.228Z,2.10
2018-09-25T12:38:37.091Z,1.63
2018-09-25T12:46:15.115Z,1.57
2018-09-25T12:48:49.984Z,1.80
2018-09-25T12:51:24.744Z,2.33
2018-09-25T12:53:59.590Z,1.87
2018-09-25T12:56:34.659Z,2.00
2018-09-25T12:59:09.599Z,1.87
2018-09-25T13:01:44.520Z,1.47
2018-09-25T13:04:19.345Z,2.10
2018-09-25T13:06:54.935Z,1.80
2018-09-25T13:09:29.792Z,1.70
2018-09-25T13:12:04.725Z,1.60
2018-09-25T13:14:39.566Z,1.70
2018-09-25T13:17:14.661Z,1.70
2018-09-25T13:19:49.500Z,1.50
2018-09-25T13:22:24.296Z,1.80
2018-09-25T13:24:59.046Z,1.77
2018-09-25T13:27:33.917Z,1.07
2018-09-25T13:30:08.811Z,1.40
2018-09-25T13:32:43.857Z,1.42
2018-09-25T13:35:18.921Z,1.20
2018-09-25T13:37:53.763Z,1.20
2018-09-25T13:40:28.930Z,1.37
2018-09-25T13:43:03.891Z,1.40
2018-09-25T13:45:38.934Z,1.53
2018-09-25T13:48:14.001Z,1.30
2018-09-25T13:50:49.002Z,1.37
2018-09-25T13:53:24.103Z,1.27
2018-09-25T13:55:58.873Z,1.40
2018-09-25T13:58:34.050Z,1.30
2018-09-25T14:01:10.235Z,1.47
2018-09-25T14:03:45.031Z,1.20
2018-09-25T14:06:20.006Z,1.30
2018-09-25T14:13:58.244Z,1.63
2018-09-25T14:16:33.125Z,1.77
2018-09-25T14:19:08.151Z,1.50
2018-09-25T14:21:43.136Z,2.10
2018-09-25T14:24:18.246Z,2.00
2018-09-25T14:26:53.264Z,2.07
2018-09-25T14:29:28.155Z,1.80
2018-09-25T14:32:03.201Z,7.80
2018-09-25T14:34:38.649Z,3.58
2018-09-25T14:37:13.659Z,2.00
2018-09-25T14:39:48.650Z,1.90
2018-09-25T14:42:23.770Z,1.40
2018-09-25T14:44:58.946Z,1.60
2018-09-25T14:47:33.891Z,1.60
2018-09-25T14:50:09.009Z,1.80
2018-09-25T14:52:43.831Z,1.50
2018-09-25T14:55:18.601Z,1.50
2018-09-25T14:57:53.505Z,1.90
2018-09-25T15:00:28.585Z,1.80
2018-09-25T15:03:03.737Z,2.20
2018-09-25T15:05:38.730Z,2.17
2018-09-25T15:08:13.906Z,2.30
2018-09-25T15:10:48.708Z,2.50
2018-09-25T15:13:23.687Z,2.47
2018-09-25T15:15:58.532Z,3.00
2018-09-25T15:18:33.277Z,3.03
2018-09-25T15:21:08.380Z,1.87
2018-09-25T15:23:43.583Z,1.77
2018-09-25T15:26:18.467Z,1.67
2018-09-25T15:28:53.417Z,1.70
2018-09-25T15:31:28.508Z,1.70
2018-09-25T15:34:03.717Z,1.90
2018-09-25T15:36:38.556Z,2.57
2018-09-25T15:39:14.842Z,2.03
2018-09-25T15:41:49.945Z,1.60
2018-09-25T15:44:24.983Z,1.57
2018-09-25T15:47:00.297Z,2.00
2018-09-25T15:49:35.371Z,2.30
2018-09-25T15:52:10.342Z,2.00
2018-09-25T15:54:45.199Z,1.90
2018-09-25T15:57:20.300Z,1.90
2018-09-25T15:59:55.210Z,1.70
2018-09-25T16:02:30.311Z,2.50
2018-09-25T16:05:05.006Z,2.08
2018-09-25T16:07:39.876Z,2.17
2018-09-25T16:10:14.840Z,2.00
2018-09-25T16:12:49.922Z,2.63
2018-09-25T16:15:24.864Z,6.30
2018-09-25T16:17:59.832Z,2.98
2018-09-25T16:20:34.722Z,2.67
2018-09-25T16:23:09.557Z,2.08
2018-09-25T16:25:44.306Z,2.27
2018-09-25T16:28:19.213Z,2.17
2018-09-25T16:30:54.226Z,2.23
2018-09-25T16:33:29.335Z,3.73
2018-09-25T16:36:04.109Z,3.07
2018-09-25T16:38:39.361Z,2.40
2018-09-25T16:41:14.364Z,2.30
2018-09-25T16:43:49.232Z,2.72
2018-09-25T16:46:24.413Z,2.70
2018-09-25T16:48:59.371Z,3.40
2018-09-25T16:51:34.333Z,3.20
2018-09-25T16:54:09.195Z,2.93
2018-09-25T16:56:44.172Z,2.70
2018-09-25T16:59:19.128Z,2.80
2018-09-25T17:01:54.492Z,2.97
2018-09-25T17:04:29.582Z,3.00
2018-09-25T17:07:04.409Z,2.80
2018-09-25T17:09:39.280Z,4.30
2018-09-25T17:12:14.491Z,6.20
2018-09-25T17:14:49.611Z,6.83
2018-09-25T17:17:24.663Z,3.87
2018-09-25T17:19:59.581Z,3.53
2018-09-25T17:22:34.357Z,4.03
2018-09-25T17:25:09.355Z,5.10
2018-09-25T17:27:44.192Z,4.20
2018-09-25T17:30:19.015Z,3.47
2018-09-25T17:32:54.146Z,3.62
2018-09-25T17:35:28.932Z,3.53
2018-09-25T17:38:03.857Z,3.40
2018-09-25T17:40:38.604Z,3.33
2018-09-25T17:43:13.418Z,3.00
2018-09-25T17:45:48.391Z,2.73
2018-09-25T17:48:23.460Z,3.08
2018-09-25T17:50:58.396Z,3.60
2018-09-25T17:53:33.196Z,3.40
2018-09-25T17:56:08.411Z,2.97
2018-09-25T17:58:43.518Z,3.73
2018-09-25T18:01:18.609Z,3.33
2018-09-25T18:03:53.551Z,3.10
2018-09-25T18:06:28.659Z,3.62
2018-09-25T18:09:03.712Z,6.10
2018-09-25T18:11:38.702Z,9.03
2018-09-25T18:14:14.238Z,4.60
2018-09-25T18:16:49.271Z,3.60
2018-09-25T18:19:24.216Z,3.03
2018-09-25T18:21:59.476Z,4.67
2018-09-25T18:24:34.872Z,4.00
2018-09-25T18:27:09.925Z,3.30
2018-09-25T18:29:44.935Z,3.37
2018-09-25T18:32:20.167Z,3.43
2018-09-25T18:34:55.181Z,3.93
2018-09-25T18:37:30.358Z,3.77
2018-09-25T18:40:05.482Z,3.67
2018-09-25T18:42:40.632Z,4.53
2018-09-25T18:45:15.680Z,8.30
2018-09-25T18:47:50.663Z,5.30
2018-09-25T18:50:25.573Z,4.73
2018-09-25T18:53:00.531Z,4.40
2018-09-25T18:55:35.558Z,37.98
2018-09-25T18:58:10.612Z,50.33
2018-09-25T19:00:45.742Z,12.03
2018-09-25T19:03:21.099Z,6.90
2018-09-25T19:05:57.565Z,5.17
2018-09-25T19:08:32.572Z,4.70
2018-09-25T19:11:07.982Z,4.00
2018-09-25T19:13:42.928Z,5.10
2018-09-25T19:16:17.768Z,4.70
2018-09-25T19:18:53.022Z,4.70
2018-09-25T19:21:28.019Z,4.03
2018-09-25T19:24:03.098Z,7.70
2018-09-25T19:26:38.382Z,4.93
2018-09-25T19:29:13.793Z,7.50
2018-09-25T19:31:48.761Z,7.55
2018-09-25T19:34:23.878Z,6.03
2018-09-25T19:36:59.016Z,8.38
2018-09-25T19:39:34.001Z,6.20
2018-09-25T19:42:09.104Z,5.13
2018-09-25T19:44:44.233Z,5.30
2018-09-25T19:47:19.093Z,5.57
2018-09-25T19:49:54.113Z,7.03
2018-09-25T19:52:29.034Z,6.15
2018-09-25T19:55:04.132Z,6.60
2018-09-25T19:57:39.300Z,6.40
2018-09-25T20:00:14.333Z,5.50
2018-09-25T20:02:49.422Z,5.83
2018-09-25T20:05:24.490Z,15.13
2018-09-25T20:07:59.430Z,30.93
2018-09-25T20:10:34.477Z,14.70
2018-09-25T20:13:09.345Z,15.37
2018-09-25T20:15:44.421Z,8.07
2018-09-25T20:18:19.505Z,5.78
2018-09-25T20:20:54.677Z,6.07
2018-09-25T20:23:29.622Z,6.03
2018-09-25T20:26:04.676Z,6.80
2018-09-25T20:28:39.598Z,7.53
2018-09-25T20:31:14.565Z,8.13
2018-09-25T20:33:49.465Z,7.57
2018-09-25T20:36:24.547Z,6.50
2018-09-25T20:38:59.560Z,6.67
2018-09-25T20:41:34.392Z,6.10
2018-09-25T20:44:09.496Z,5.53
2018-09-25T20:46:44.440Z,5.63
2018-09-25T20:49:19.442Z,5.90
2018-09-25T20:51:54.527Z,5.03
2018-09-25T20:54:29.433Z,5.37
2018-09-25T20:57:04.328Z,5.28
2018-09-25T20:59:39.282Z,6.35
2018-09-25T21:02:14.071Z,5.63
2018-09-25T21:04:49.041Z,6.03
2018-09-25T21:07:23.952Z,5.28
2018-09-25T21:09:58.668Z,5.73
2018-09-25T21:12:33.703Z,5.20
2018-09-25T21:15:08.752Z,5.53
2018-09-25T21:17:43.537Z,5.40
2018-09-25T21:20:18.476Z,5.57
2018-09-25T21:22:53.583Z,5.60
2018-09-25T21:25:28.239Z,5.13
2018-09-25T21:28:03.320Z,4.70
2018-09-25T21:30:38.211Z,5.07
2018-09-25T21:33:13.377Z,4.50
2018-09-25T21:35:48.663Z,4.67
2018-09-25T21:38:23.637Z,4.87
2018-09-25T21:40:58.599Z,4.90
2018-09-25T21:43:33.612Z,4.70
2018-09-25T21:46:08.393Z,4.77
2018-09-25T21:48:43.237Z,5.00
2018-09-25T21:51:18.269Z,5.10
2018-09-25T21:53:52.998Z,5.27
2018-09-25T21:56:27.899Z,5.53
2018-09-25T21:59:02.726Z,4.92
2018-09-25T22:01:37.582Z,5.57
2018-09-25T22:04:12.596Z,16.45
2018-09-25T22:06:47.533Z,26.70
2018-09-25T22:09:22.113Z,9.83
2018-09-25T22:11:57.137Z,6.10
2018-09-25T22:14:31.889Z,5.53
2018-09-25T22:17:06.876Z,5.03
2018-09-25T22:19:41.546Z,5.07
2018-09-25T22:22:16.560Z,5.30
2018-09-25T22:24:51.250Z,4.37
2018-09-25T22:27:26.171Z,5.00
2018-09-25T22:30:01.168Z,4.67
2018-09-25T22:32:35.985Z,4.83
2018-09-25T22:35:11.594Z,4.62
2018-09-25T22:37:46.262Z,3.97
2018-09-25T22:40:21.165Z,4.75
2018-09-25T22:42:56.198Z,4.70
2018-09-25T22:45:31.232Z,4.57
2018-09-25T22:48:06.070Z,4.50
2018-09-25T22:50:40.709Z,4.53
2018-09-25T22:53:15.498Z,4.43
2018-09-25T22:55:50.296Z,4.47
2018-09-25T22:58:25.128Z,4.30
2018-09-25T23:00:59.940Z,4.70
2018-09-25T23:03:34.976Z,4.10
2018-09-25T23:06:09.976Z,4.50
2018-09-25T23:08:44.862Z,3.98
2018-09-25T23:11:19.572Z,4.10
2018-09-25T23:13:54.197Z,4.63
2018-09-25T23:16:29.008Z,3.93
2018-09-25T23:19:03.832Z,4.43
2018-09-25T23:21:38.512Z,4.27
2018-09-25T23:24:13.566Z,4.30
2018-09-25T23:26:48.351Z,3.95
2018-09-25T23:29:23.219Z,3.70
2018-09-25T23:31:58.041Z,4.00
2018-09-25T23:34:32.859Z,4.13
2018-09-25T23:37:07.637Z,4.40
2018-09-25T23:39:42.564Z,4.37
2018-09-25T23:42:18.451Z,4.42
2018-09-25T23:44:56.079Z,4.50
2018-09-25T23:47:30.885Z,4.47
2018-09-25T23:50:05.847Z,4.47
2018-09-25T23:52:43.597Z,4.63
2018-09-25T23:55:17.638Z,3.77
2018-09-25T23:57:58.598Z,3.92
